Time;durP1;ratioP1;P1;durP2;ratioP2;P2;SDS_P1;SDS_P2;PMS_P1;PMS_P2;Temp;Humidity;BMP_temperature;BMP_pressure;BME280_temperature;BME280_humidity;BME280_pressure;Samples;Min_cycle;Max_cycle;Signal;HPM_P1;HPM_P2
2021/07/10 00:01:06;;;;;;;8.47;2.07;;;17.70;99.90;;;;;;5056920;28;20047;-65
2021/07/10 00:03:50;;;;;;;3.22;2.10;;;17.80;99.90;;;;;;5059202;28;20092;-66
2021/07/10 00:06:34;;;;;;;2.90;2.30;;;17.80;99.90;;;;;;5074125;28;20503;-66
2021/07/10 00:09:19;;;;;;;2.60;1.90;;;17.90;99.90;;;;;;5067858;28;20044;-66
2021/07/10 00:12:04;;;;;;;2.20;1.95;;;17.90;99.90;;;;;;5074200;28;20266;-66
2021/07/10 00:14:48;;;;;;;3.08;2.38;;;17.90;99.90;;;;;;5066862;28;20072;-65
2021/07/10 00:17:32;;;;;;;3.70;2.00;;;17.90;99.90;;;;;;5051596;28;20462;-67
2021/07/10 00:20:17;;;;;;;3.70;2.30;;;18.00;99.90;;;;;;5063925;28;20052;-66
2021/07/10 00:23:01;;;;;;;3.00;1.90;;;18.00;99.90;;;;;;5074042;28;20094;-67
2021/07/10 00:25:46;;;;;;;2.78;2.00;;;18.10;99.90;;;;;;5059434;28;20060;-67
2021/07/10 00:28:30;;;;;;;2.40;2.13;;;18.10;99.90;;;;;;5054005;28;20504;-67
2021/07/10 00:31:14;;;;;;;3.35;2.22;;;18.10;99.90;;;;;;5053849;28;20338;-67
2021/07/10 00:33:58;;;;;;;2.53;1.97;;;18.10;99.90;;;;;;5053266;28;20064;-66
2021/07/10 00:36:44;;;;;;;3.72;2.03;;;18.10;99.90;;;;;;5066346;28;20086;-66
2021/07/10 00:39:29;;;;;;;2.88;2.00;;;18.10;99.90;;;;;;5068254;28;20040;-66
2021/07/10 00:42:19;;;;;;;2.22;1.95;;;18.10;99.90;;;;;;5071616;28;20028;-66
2021/07/10 00:45:08;;;;;;;2.67;1.90;;;18.20;99.90;;;;;;5048822;28;20090;-66
2021/07/10 00:47:54;;;;;;;3.20;2.10;;;18.20;99.90;;;;;;5052014;28;20013;-66
2021/07/10 00:50:40;;;;;;;2.95;2.03;;;18.20;99.90;;;;;;5065265;28;20048;-67
2021/07/10 00:53:26;;;;;;;3.75;2.05;;;18.20;99.90;;;;;;5072007;28;20391;-66
2021/07/10 00:56:12;;;;;;;2.45;2.13;;;18.20;99.90;;;;;;5053686;28;20033;-66
2021/07/10 00:58:59;;;;;;;2.83;2.20;;;18.20;99.90;;;;;;5051450;28;20024;-66
2021/07/10 01:01:45;;;;;;;3.63;2.20;;;18.20;99.90;;;;;;5052269;28;20064;-66
2021/07/10 01:04:31;;;;;;;2.65;2.17;;;18.20;99.90;;;;;;5052413;28;20017;-65
2021/07/10 01:07:17;;;;;;;3.13;2.50;;;18.20;99.90;;;;;;5051262;28;20033;-66
2021/07/10 01:10:03;;;;;;;4.22;2.20;;;18.20;99.90;;;;;;5065287;28;20037;-66
2021/07/10 01:12:52;;;;;;;2.83;2.13;;;18.20;99.90;;;;;;5072905;28;20032;-66
2021/07/10 01:15:38;;;;;;;3.15;2.20;;;18.20;99.90;;;;;;5070550;28;20488;-66
2021/07/10 01:18:23;;;;;;;3.53;2.38;;;18.20;99.90;;;;;;5071404;28;20477;-66
2021/07/10 01:21:09;;;;;;;3.38;2.22;;;18.20;99.90;;;;;;5054680;28;20045;-66
2021/07/10 01:23:55;;;;;;;4.80;2.60;;;18.20;99.90;;;;;;5051488;28;20037;-66
2021/07/10 01:26:41;;;;;;;3.28;2.58;;;18.20;99.90;;;;;;5061530;28;20032;-66
2021/07/10 01:29:28;;;;;;;3.00;2.55;;;18.20;99.90;;;;;;5072956;28;20403;-66
2021/07/10 01:32:17;;;;;;;4.05;2.55;;;18.20;99.90;;;;;;5057970;28;20051;-67
2021/07/10 01:35:04;;;;;;;3.63;2.78;;;18.20;99.90;;;;;;5052375;28;20025;-67
2021/07/10 01:37:50;;;;;;;4.07;2.72;;;18.30;99.90;;;;;;5071424;28;20020;-67
2021/07/10 01:40:36;;;;;;;5.00;2.85;;;18.20;99.90;;;;;;5070596;28;20020;-66
2021/07/10 01:43:22;;;;;;;4.47;3.40;;;18.30;99.90;;;;;;5072199;28;20086;-65
2021/07/10 01:46:08;;;;;;;3.47;2.85;;;18.20;99.90;;;;;;5066313;28;20456;-65
2021/07/10 01:48:54;;;;;;;3.90;3.15;;;18.20;99.90;;;;;;5050978;28;20021;-65
2021/07/10 01:51:40;;;;;;;5.05;3.67;;;18.20;99.90;;;;;;5052985;28;20053;-66
2021/07/10 01:54:26;;;;;;;4.35;3.47;;;18.30;99.90;;;;;;5051909;28;20017;-66
2021/07/10 01:57:12;;;;;;;4.35;3.53;;;18.30;99.90;;;;;;5065619;28;20116;-66
2021/07/10 01:59:58;;;;;;;3.38;3.08;;;18.30;99.90;;;;;;5070440;28;20435;-66
2021/07/10 02:02:44;;;;;;;4.93;4.07;;;18.30;99.90;;;;;;5053167;28;20048;-66
2021/07/10 02:05:30;;;;;;;4.35;3.63;;;18.30;99.90;;;;;;5050180;28;20484;-66
2021/07/10 02:08:16;;;;;;;5.70;4.32;;;18.30;99.90;;;;;;5070293;28;20036;-66
2021/07/10 02:11:02;;;;;;;4.90;4.15;;;18.20;99.90;;;;;;5068474;28;20067;-65
2021/07/10 02:13:47;;;;;;;5.05;3.90;;;18.20;99.90;;;;;;5068858;28;20028;-65
2021/07/10 02:16:33;;;;;;;7.90;4.60;;;18.20;99.90;;;;;;5067259;28;20143;-65
2021/07/10 02:19:19;;;;;;;5.25;4.40;;;18.30;99.90;;;;;;5065388;28;20016;-65
2021/07/10 02:22:06;;;;;;;5.30;4.20;;;18.20;99.90;;;;;;5070294;28;20036;-65
2021/07/10 02:24:52;;;;;;;4.97;4.40;;;18.30;99.90;;;;;;5055972;28;20567;-64
2021/07/10 02:27:38;;;;;;;5.90;4.72;;;18.30;99.90;;;;;;5052326;28;20117;-65
2021/07/10 02:30:27;;;;;;;7.95;5.45;;;18.30;99.90;;;;;;5055097;28;20032;-65
2021/07/10 02:33:11;;;;;;;6.57;5.30;;;18.30;99.90;;;;;;5051464;28;20032;-65
2021/07/10 02:35:55;;;;;;;6.78;5.05;;;18.30;99.90;;;;;;5054383;28;20058;-65
2021/07/10 02:38:39;;;;;;;6.77;4.63;;;18.30;99.90;;;;;;5071421;28;20031;-65
2021/07/10 02:41:23;;;;;;;5.50;4.90;;;18.30;99.90;;;;;;5070281;28;20051;-66
2021/07/10 02:44:07;;;;;;;7.18;5.35;;;18.30;99.90;;;;;;5071384;28;20404;-65
2021/07/10 02:46:55;;;;;;;7.40;5.97;;;18.30;99.90;;;;;;5059552;28;20040;-64
2021/07/10 02:49:39;;;;;;;7.47;5.97;;;18.40;99.90;;;;;;5061300;28;20165;-66
2021/07/10 02:52:23;;;;;;;6.75;5.50;;;18.40;99.90;;;;;;5069144;28;20043;-65
2021/07/10 02:55:08;;;;;;;7.10;4.97;;;18.30;99.90;;;;;;5071460;28;20040;-67
2021/07/10 02:57:52;;;;;;;7.82;5.85;;;18.40;99.90;;;;;;5052033;28;20131;-66
2021/07/10 03:00:36;;;;;;;5.57;4.93;;;18.40;99.90;;;;;;5051879;28;20449;-67
2021/07/10 03:03:21;;;;;;;6.82;5.35;;;18.40;99.90;;;;;;5056115;28;20534;-67
2021/07/10 03:06:05;;;;;;;;;;;18.50;99.90;;;;;;5066044;28;20159;-67
2021/07/10 03:08:50;;;;;;;6.65;5.43;;;18.50;99.90;;;;;;5050970;28;19959;-66
2021/07/10 03:11:34;;;;;;;8.45;5.72;;;18.50;99.90;;;;;;5059721;28;20131;-67
2021/07/10 03:14:18;;;;;;;7.50;6.23;;;18.50;99.90;;;;;;5070916;28;20131;-67
2021/07/10 03:17:02;;;;;;;6.82;5.28;;;18.50;99.90;;;;;;5058076;28;20075;-67
2021/07/10 03:19:46;;;;;;;7.18;5.13;;;18.50;99.90;;;;;;5059570;28;20157;-67
2021/07/10 03:22:30;;;;;;;9.17;6.27;;;18.50;99.90;;;;;;5070114;28;20165;-67
2021/07/10 03:25:14;;;;;;;7.37;5.73;;;18.60;99.90;;;;;;5056019;28;20055;-67
2021/07/10 03:28:00;;;;;;;8.30;6.72;;;18.60;99.90;;;;;;5074787;28;20039;-67
2021/07/10 03:30:48;;;;;;;6.30;5.28;;;18.60;99.90;;;;;;5072020;28;20059;-67
2021/07/10 03:33:36;;;;;;;7.50;6.25;;;18.60;99.90;;;;;;5055153;28;20028;-67
2021/07/10 03:36:20;;;;;;;6.95;6.25;;;18.60;99.90;;;;;;5061829;28;20506;-67
2021/07/10 03:39:04;;;;;;;9.13;6.85;;;18.70;99.90;;;;;;5075044;28;20051;-67
2021/07/10 03:41:48;;;;;;;9.67;6.40;;;18.70;99.90;;;;;;5063338;28;20071;-67
2021/07/10 03:44:33;;;;;;;8.73;5.50;;;18.70;99.90;;;;;;5054646;28;20347;-67
2021/07/10 03:47:17;;;;;;;7.53;6.00;;;18.70;99.90;;;;;;5054805;28;20124;-67
2021/07/10 03:50:03;;;;;;;9.37;6.37;;;18.70;99.90;;;;;;5071836;28;20043;-67
2021/07/10 03:52:48;;;;;;;6.97;5.30;;;18.80;99.90;;;;;;5073539;28;20043;-67
2021/07/10 03:55:32;;;;;;;10.10;6.45;;;18.80;99.90;;;;;;5073368;28;20035;-67
2021/07/10 03:58:16;;;;;;;7.60;5.57;;;18.80;99.90;;;;;;5054217;28;20519;-67
2021/07/10 04:01:00;;;;;;;9.02;6.28;;;18.80;99.90;;;;;;5068724;28;20089;-66
2021/07/10 04:03:44;;;;;;;7.87;6.00;;;18.80;99.90;;;;;;5072971;28;20085;-67
2021/07/10 04:06:28;;;;;;;8.02;6.03;;;18.90;99.90;;;;;;5072403;28;20377;-67
2021/07/10 04:09:13;;;;;;;7.63;6.13;;;18.90;99.90;;;;;;5073223;28;20056;-66
2021/07/10 04:11:57;;;;;;;8.88;6.93;;;18.90;99.90;;;;;;5061287;28;20051;-67
2021/07/10 04:14:41;;;;;;;7.57;6.30;;;18.90;99.90;;;;;;5053317;28;20578;-66
2021/07/10 04:17:27;;;;;;;7.85;6.40;;;18.90;99.90;;;;;;5061288;28;20433;-67
2021/07/10 04:20:13;;;;;;;9.57;6.55;;;18.90;99.90;;;;;;5053283;28;20032;-66
2021/07/10 04:22:57;;;;;;;10.75;7.43;;;18.90;99.90;;;;;;5072671;28;20146;-67
2021/07/10 04:25:41;;;;;;;9.13;6.80;;;18.90;99.90;;;;;;5072210;28;20126;-67
2021/07/10 04:28:26;;;;;;;9.18;7.03;;;19.00;99.90;;;;;;5073338;28;20127;-67
2021/07/10 04:31:10;;;;;;;8.07;7.13;;;19.00;99.90;;;;;;5068795;28;20040;-67
2021/07/10 04:33:54;;;;;;;9.70;7.68;;;18.90;99.90;;;;;;5053127;28;20059;-65
2021/07/10 04:36:38;;;;;;;10.97;7.93;;;19.00;99.90;;;;;;5061981;28;20036;-65
2021/07/10 04:39:23;;;;;;;10.60;7.95;;;19.00;99.90;;;;;;5072153;28;20143;-65
2021/07/10 04:42:09;;;;;;;13.25;8.00;;;18.90;99.90;;;;;;5042704;28;20029;-65
2021/07/10 04:44:55;;;;;;;10.48;7.60;;;19.00;99.90;;;;;;5052492;28;20022;-65
2021/07/10 04:47:42;;;;;;;10.90;6.70;;;19.00;99.90;;;;;;5064216;28;20028;-65
2021/07/10 04:50:28;;;;;;;10.63;7.55;;;19.00;99.90;;;;;;5072391;28;20432;-65
2021/07/10 04:53:14;;;;;;;12.10;8.15;;;19.00;99.80;;;;;;5052142;28;20493;-66
2021/07/10 04:56:00;;;;;;;11.68;7.13;;;19.00;99.80;;;;;;5057250;28;20444;-66
2021/07/10 04:58:46;;;;;;;10.98;7.80;;;19.00;99.80;;;;;;5071775;28;20423;-66
2021/07/10 05:01:32;;;;;;;11.30;7.43;;;19.00;99.80;;;;;;5072041;28;20086;-66
2021/07/10 05:04:18;;;;;;;11.43;8.05;;;19.00;99.80;;;;;;5072922;28;20435;-65
2021/07/10 05:07:04;;;;;;;10.82;7.70;;;19.00;99.80;;;;;;5071677;28;20028;-65
2021/07/10 05:09:51;;;;;;;9.48;7.85;;;19.00;99.70;;;;;;5066841;28;20476;-65
2021/07/10 05:12:37;;;;;;;11.02;8.02;;;19.00;99.80;;;;;;5052838;28;20032;-66
2021/07/10 05:15:23;;;;;;;11.52;7.93;;;19.00;99.70;;;;;;5059821;28;20029;-67
2021/07/10 05:18:09;;;;;;;9.48;7.80;;;19.00;99.70;;;;;;5059375;28;20047;-66
2021/07/10 05:20:55;;;;;;;12.40;8.00;;;19.00;99.60;;;;;;5068815;28;20028;-66
2021/07/10 05:23:41;;;;;;;9.52;7.65;;;19.00;99.60;;;;;;5052427;28;20103;-66
2021/07/10 05:26:27;;;;;;;12.77;8.60;;;19.00;99.60;;;;;;5059481;28;20487;-66
2021/07/10 05:29:13;;;;;;;11.25;7.93;;;19.00;99.60;;;;;;5073388;28;20025;-66
2021/07/10 05:31:58;;;;;;;11.63;8.60;;;19.00;99.60;;;;;;5065960;28;20476;-66
2021/07/10 05:34:44;;;;;;;11.05;7.68;;;19.00;99.60;;;;;;5064806;28;20442;-66
2021/07/10 05:37:30;;;;;;;12.07;8.48;;;19.10;99.60;;;;;;5069932;28;20032;-67
2021/07/10 05:40:16;;;;;;;11.05;8.15;;;19.10;99.50;;;;;;5069024;28;20504;-66
2021/07/10 05:43:02;;;;;;;10.48;7.78;;;19.10;99.60;;;;;;5070795;28;20040;-66
2021/07/10 05:45:50;;;;;;;11.90;9.20;;;19.10;99.50;;;;;;5065552;28;20025;-67
2021/07/10 05:48:36;;;;;;;14.88;7.85;;;19.10;99.30;;;;;;5070940;28;20040;-67
2021/07/10 05:51:22;;;;;;;10.85;7.80;;;19.10;99.20;;;;;;5064161;28;20467;-67
2021/07/10 05:54:09;;;;;;;11.48;8.38;;;19.10;99.20;;;;;;5055950;28;20502;-66
2021/07/10 05:56:54;;;;;;;10.15;8.40;;;19.10;99.30;;;;;;5069131;28;20609;-66
2021/07/10 05:59:40;;;;;;;9.95;7.32;;;19.10;99.20;;;;;;5068772;28;20416;-67
2021/07/10 06:02:26;;;;;;;11.85;8.07;;;19.20;99.20;;;;;;5060349;28;20032;-68
2021/07/10 06:05:12;;;;;;;8.13;6.93;;;19.30;99.10;;;;;;5055905;28;20035;-67
2021/07/10 06:07:58;;;;;;;10.35;8.30;;;19.40;99.00;;;;;;5064538;28;20025;-68
2021/07/10 06:10:44;;;;;;;9.73;6.90;;;19.40;98.70;;;;;;5065588;28;20262;-69
2021/07/10 06:13:30;;;;;;;9.77;7.40;;;19.50;98.60;;;;;;5062604;28;20013;-68
2021/07/10 06:16:17;;;;;;;12.00;8.00;;;19.60;98.60;;;;;;5063278;28;20024;-68
2021/07/10 06:19:03;;;;;;;10.55;8.05;;;19.70;98.60;;;;;;5053112;28;20619;-67
2021/07/10 06:21:49;;;;;;;11.15;8.07;;;19.70;98.70;;;;;;5067747;28;20078;-68
2021/07/10 06:24:35;;;;;;;11.10;7.10;;;19.80;98.60;;;;;;5067106;28;20960;-67
2021/07/10 06:27:21;;;;;;;10.63;7.80;;;19.90;98.80;;;;;;5058179;28;20226;-67
2021/07/10 06:30:09;;;;;;;10.98;7.85;;;20.00;98.60;;;;;;5062280;28;20048;-67
2021/07/10 06:32:35;;;;;;;9.45;7.40;;;20.10;98.50;;;;;;5066368;28;20418;-66
2021/07/10 06:35:19;;;;;;;11.98;8.80;;;20.20;98.50;;;;;;5064413;28;20032;-67
2021/07/10 06:38:04;;;;;;;9.82;7.22;;;20.20;98.40;;;;;;5066957;28;20040;-67
2021/07/10 06:40:48;;;;;;;12.13;7.13;;;20.30;98.20;;;;;;5059193;28;20087;-67
2021/07/10 06:43:32;;;;;;;10.00;6.97;;;20.30;98.00;;;;;;5062226;28;20031;-67
2021/07/10 06:46:16;;;;;;;8.38;6.40;;;20.40;97.70;;;;;;5056992;28;20039;-68
2021/07/10 06:49:00;;;;;;;9.13;6.33;;;20.40;97.60;;;;;;5059595;28;20040;-67
2021/07/10 06:51:44;;;;;;;10.40;6.75;;;20.60;97.40;;;;;;5061749;28;20711;-67
2021/07/10 06:54:28;;;;;;;11.03;7.30;;;20.70;97.20;;;;;;5055331;28;20036;-67
2021/07/10 06:57:12;;;;;;;10.07;7.03;;;20.70;97.00;;;;;;5059520;28;20150;-67
2021/07/10 06:59:56;;;;;;;9.20;6.93;;;20.90;96.80;;;;;;5065509;28;20289;-67
2021/07/10 07:02:40;;;;;;;9.68;7.10;;;20.90;96.40;;;;;;5069076;28;20420;-67
2021/07/10 07:05:06;;;;;;;7.80;6.50;;;20.90;96.30;;;;;;5067976;28;20029;-67
2021/07/10 07:07:32;;;;;;;9.10;7.53;;;21.00;96.10;;;;;;5051409;28;20035;-67
2021/07/10 07:09:58;;;;;;;12.00;7.35;;;21.00;96.20;;;;;;5066864;28;20029;-67
2021/07/10 07:12:23;;;;;;;11.18;7.60;;;21.00;95.90;;;;;;5068353;28;20017;-67
2021/07/10 07:14:49;;;;;;;12.27;7.80;;;21.10;96.00;;;;;;5073358;28;20158;-67
2021/07/10 07:17:15;;;;;;;9.05;6.93;;;21.00;95.90;;;;;;5063541;28;20085;-67
2021/07/10 07:19:40;;;;;;;9.40;7.28;;;21.10;95.70;;;;;;5067379;28;20024;-67
2021/07/10 07:22:06;;;;;;;11.55;7.38;;;21.10;95.60;;;;;;5066706;28;20025;-67
2021/07/10 07:24:31;;;;;;;9.25;6.85;;;21.10;95.40;;;;;;5061522;28;20086;-67
2021/07/10 07:26:57;;;;;;;9.55;6.78;;;21.20;95.30;;;;;;5068006;28;20064;-67
2021/07/10 07:29:22;;;;;;;10.85;7.45;;;21.20;95.40;;;;;;5063689;28;20115;-67
2021/07/10 07:31:48;;;;;;;9.27;6.40;;;21.20;95.50;;;;;;5063870;28;20083;-67
2021/07/10 07:34:14;;;;;;;8.65;7.63;;;21.30;95.30;;;;;;5067618;28;20453;-67
2021/07/10 07:36:58;;;;;;;9.15;6.50;;;21.30;95.40;;;;;;5060402;28;20052;-67
2021/07/10 07:39:46;;;;;;;8.48;6.30;;;21.50;95.30;;;;;;5061484;28;20043;-67
2021/07/10 07:42:30;;;;;;;7.88;6.35;;;21.50;94.80;;;;;;5064589;28;20051;-67
2021/07/10 07:45:15;;;;;;;6.95;6.00;;;21.60;94.70;;;;;;5064157;28;20039;-67
2021/07/10 07:47:59;;;;;;;7.72;6.18;;;21.70;94.60;;;;;;5069457;28;20629;-67
2021/07/10 07:50:43;;;;;;;8.27;6.55;;;21.80;94.60;;;;;;5068454;28;20130;-67
2021/07/10 07:53:27;;;;;;;8.67;6.33;;;21.80;94.10;;;;;;5060139;28;20450;-67
2021/07/10 07:56:11;;;;;;;8.45;6.03;;;21.90;94.20;;;;;;5060463;28;20526;-67
2021/07/10 07:58:39;;;;;;;9.10;5.93;;;21.90;94.10;;;;;;5067317;28;20032;-67
2021/07/10 08:01:06;;;;;;;10.38;6.43;;;21.90;93.80;;;;;;5062120;28;20060;-67
2021/07/10 08:03:32;;;;;;;5.85;4.50;;;22.00;93.10;;;;;;5070838;28;20040;-67
2021/07/10 08:05:57;;;;;;;6.38;5.20;;;21.90;93.00;;;;;;5058616;28;20021;-67
2021/07/10 08:08:23;;;;;;;7.70;5.93;;;22.00;93.00;;;;;;5068218;28;20028;-66
2021/07/10 08:10:49;;;;;;;6.38;4.93;;;22.00;93.00;;;;;;5060136;28;20538;-67
2021/07/10 08:13:15;;;;;;;7.47;5.15;;;22.00;92.90;;;;;;5058346;28;20025;-67
2021/07/10 08:15:40;;;;;;;6.63;5.55;;;22.00;92.80;;;;;;5064445;28;20031;-67
2021/07/10 08:18:06;;;;;;;6.43;4.95;;;22.10;92.50;;;;;;5067630;28;20035;-67
2021/07/10 08:20:32;;;;;;;6.18;5.38;;;22.10;92.50;;;;;;5068321;28;20021;-67
2021/07/10 08:22:57;;;;;;;5.53;4.93;;;22.10;92.30;;;;;;5053779;28;20391;-67
2021/07/10 08:25:24;;;;;;;6.30;5.18;;;22.20;91.90;;;;;;5073508;28;20043;-67
2021/07/10 08:27:50;;;;;;;5.35;4.63;;;22.20;92.00;;;;;;5070777;28;20033;-67
2021/07/10 08:30:16;;;;;;;6.68;5.28;;;22.20;91.70;;;;;;5072252;28;20404;-67
2021/07/10 08:32:44;;;;;;;6.55;4.63;;;22.10;91.40;;;;;;5054391;28;20029;-67
2021/07/10 08:35:10;;;;;;;5.95;4.75;;;22.20;91.50;;;;;;5066456;28;20541;-67
2021/07/10 08:37:36;;;;;;;6.00;4.70;;;22.20;91.70;;;;;;5071514;28;20024;-67
2021/07/10 08:40:03;;;;;;;8.30;5.30;;;22.20;91.30;;;;;;5069470;28;20021;-66
2021/07/10 08:42:29;;;;;;;8.00;4.45;;;22.30;91.30;;;;;;5067041;28;20032;-67
2021/07/10 08:44:55;;;;;;;7.38;4.60;;;22.20;90.90;;;;;;5072141;28;20013;-67
2021/07/10 08:47:21;;;;;;;4.85;4.35;;;22.20;90.70;;;;;;5064630;28;20024;-67
2021/07/10 08:49:47;;;;;;;5.03;4.40;;;22.20;90.70;;;;;;5072390;28;20032;-67
2021/07/10 08:52:12;;;;;;;6.68;4.63;;;22.20;90.80;;;;;;5072603;28;20032;-67
2021/07/10 08:54:39;;;;;;;7.22;5.05;;;22.20;90.80;;;;;;5073109;28;20024;-66
2021/07/10 08:57:07;;;;;;;6.18;5.18;;;22.30;90.90;;;;;;5071749;28;20043;-67
2021/07/10 08:59:33;;;;;;;8.60;5.57;;;22.30;90.80;;;;;;5072021;28;20058;-68
2021/07/10 09:01:58;;;;;;;10.73;5.22;;;22.40;90.80;;;;;;5062531;28;20028;-67
2021/07/10 09:04:24;;;;;;;5.38;4.80;;;22.50;90.70;;;;;;5060073;28;20100;-68
2021/07/10 09:06:53;;;;;;;10.38;5.40;;;22.60;90.40;;;;;;5059585;28;20116;-68
2021/07/10 09:09:18;;;;;;;6.47;5.55;;;22.60;90.00;;;;;;5069555;28;20471;-68
2021/07/10 09:12:01;;;;;;;10.43;5.80;;;22.70;90.20;;;;;;5058084;28;20032;-68
2021/07/10 09:14:30;;;;;;;8.02;6.25;;;22.70;90.20;;;;;;5058063;28;20063;-68
2021/07/10 09:17:12;;;;;;;8.38;6.03;;;22.70;90.30;;;;;;5054860;28;20032;-68
2021/07/10 09:19:38;;;;;;;12.95;8.85;;;22.80;90.40;;;;;;5057532;28;20055;-68
2021/07/10 09:22:04;;;;;;;9.60;6.20;;;22.90;90.40;;;;;;5061329;28;20032;-68
2021/07/10 09:24:35;;;;;;;10.13;7.47;;;23.00;90.20;;;;;;5042438;28;20033;-69
2021/07/10 09:27:05;;;;;;;9.05;7.65;;;23.00;90.00;;;;;;5062371;28;20059;-68
2021/07/10 09:29:43;;;;;;;11.65;6.90;;;23.10;89.60;;;;;;5068205;28;20040;-68
2021/07/10 09:32:12;;;;;;;7.38;6.28;;;23.10;89.00;;;;;;5067164;28;20020;-68
2021/07/10 09:34:43;;;;;;;11.40;7.03;;;23.20;88.20;;;;;;5070129;28;20052;-68
2021/07/10 09:37:12;;;;;;;8.40;6.68;;;23.20;87.90;;;;;;5068153;28;20025;-68
2021/07/10 09:39:43;;;;;;;7.18;6.10;;;23.20;88.60;;;;;;5058548;28;20037;-68
2021/07/10 09:42:11;;;;;;;9.05;6.40;;;23.30;88.50;;;;;;5068867;28;20115;-68
2021/07/10 09:44:42;;;;;;;7.22;5.60;;;23.30;88.10;;;;;;5064412;28;20459;-68
2021/07/10 09:47:29;;;;;;;10.15;6.72;;;23.30;87.50;;;;;;5064254;28;20510;-68
2021/07/10 09:50:23;;;;;;;7.88;6.43;;;23.40;87.90;;;;;;5065910;28;20043;-68
2021/07/10 09:53:27;;;;;;;9.73;6.78;;;23.40;87.70;;;;;;5066727;28;20055;-67
2021/07/10 09:56:14;;;;;;;7.95;6.05;;;23.40;86.40;;;;;;5060758;28;20039;-69
2021/07/10 09:58:59;;;;;;;9.10;5.90;;;23.30;86.00;;;;;;5061807;28;20031;-67
2021/07/10 10:01:43;;;;;;;9.73;6.15;;;23.30;86.20;;;;;;5060460;28;20121;-66
2021/07/10 10:04:32;;;;;;;;;;;23.40;85.80;;;;;;5071013;28;20031;-68
2021/07/10 10:07:21;;;;;;;7.40;5.57;;;23.40;87.10;;;;;;5065308;28;20309;-68
2021/07/10 10:10:05;;;;;;;7.38;5.47;;;23.50;86.00;;;;;;5055291;28;20134;-68
2021/07/10 10:13:08;;;;;;;6.82;5.47;;;23.50;86.00;;;;;;5060470;28;20037;-68
2021/07/10 10:15:53;;;;;;;9.00;6.10;;;23.50;85.20;;;;;;5058361;28;20575;-68
2021/07/10 10:18:38;;;;;;;8.52;6.00;;;23.50;85.20;;;;;;5060793;28;21223;-68
2021/07/10 10:21:22;;;;;;;7.40;5.60;;;23.60;85.40;;;;;;5060278;28;20035;-68
2021/07/10 10:24:07;;;;;;;6.93;5.15;;;23.70;84.60;;;;;;5063618;28;21330;-68
2021/07/10 10:26:52;;;;;;;;;;;23.80;83.80;;;;;;5058380;28;20051;-68
2021/07/10 10:29:37;;;;;;;7.07;4.95;;;23.90;85.00;;;;;;5061096;28;19974;-68
2021/07/10 10:32:22;;;;;;;;;;;23.90;83.40;;;;;;5058835;28;20031;-68
2021/07/10 10:35:07;;;;;;;6.55;4.80;;;23.90;83.70;;;;;;5061229;28;20398;-68
2021/07/10 10:37:51;;;;;;;5.95;4.80;;;23.90;83.10;;;;;;5061490;28;20057;-68
2021/07/10 10:40:36;;;;;;;5.82;4.70;;;24.00;82.70;;;;;;5057722;28;20056;-68
2021/07/10 10:43:21;;;;;;;6.75;5.18;;;24.00;82.40;;;;;;5063781;28;20093;-68
2021/07/10 10:46:19;;;;;;;7.63;5.28;;;24.00;82.00;;;;;;5065897;28;20117;-67
2021/07/10 10:49:03;;;;;;;6.57;4.80;;;24.00;81.40;;;;;;5060400;28;20055;-68
2021/07/10 10:51:47;;;;;;;7.53;4.45;;;24.20;80.60;;;;;;5058882;28;20059;-68
2021/07/10 10:54:31;;;;;;;8.27;5.03;;;24.20;80.50;;;;;;5060066;28;20395;-67
2021/07/10 10:57:16;;;;;;;6.07;4.38;;;24.30;80.50;;;;;;5062373;28;20034;-67
2021/07/10 11:00:00;;;;;;;;;;;24.50;79.50;;;;;;5055776;28;20083;-67
2021/07/10 11:03:13;;;;;;;5.35;4.22;;;24.50;80.00;;;;;;5066352;28;19973;-67
2021/07/10 11:05:58;;;;;;;5.30;4.30;;;24.50;79.50;;;;;;5060451;28;20039;-68
2021/07/10 11:08:52;;;;;;;6.45;4.85;;;24.50;79.10;;;;;;5059785;28;20036;-68
2021/07/10 11:11:37;;;;;;;6.20;4.82;;;24.70;78.70;;;;;;5029675;28;20047;-68
2021/07/10 11:14:28;;;;;;;9.77;5.00;;;24.70;79.30;;;;;;5058410;28;20036;-67
2021/07/10 11:17:12;;;;;;;7.00;5.07;;;24.60;78.80;;;;;;5068252;28;20162;-67
2021/07/10 11:19:57;;;;;;;9.80;5.00;;;24.50;77.00;;;;;;5060102;28;20457;-67
2021/07/10 11:22:56;;;;;;;6.10;4.68;;;24.50;77.70;;;;;;5057461;28;20036;-67
2021/07/10 11:25:49;;;;;;;8.50;4.60;;;24.50;78.10;;;;;;5062950;28;20403;-67
2021/07/10 11:28:41;;;;;;;5.20;4.13;;;24.50;77.50;;;;;;5064408;28;20396;-68
2021/07/10 11:31:32;;;;;;;5.38;4.85;;;24.40;77.00;;;;;;5064864;28;20055;-68
2021/07/10 11:34:32;;;;;;;6.22;4.60;;;24.30;76.80;;;;;;5067988;28;20039;-68
2021/07/10 11:37:18;;;;;;;5.20;4.22;;;24.30;76.20;;;;;;5060569;28;20067;-68
2021/07/10 11:40:07;;;;;;;6.80;4.55;;;24.30;76.20;;;;;;5065628;28;20079;-68
2021/07/10 11:42:51;;;;;;;5.35;4.18;;;24.30;76.10;;;;;;5059495;28;20567;-68
2021/07/10 11:45:37;;;;;;;8.80;4.95;;;24.30;76.30;;;;;;5063055;28;20063;-68
2021/07/10 11:48:23;;;;;;;5.45;4.38;;;24.40;76.20;;;;;;5069107;28;20044;-67
2021/07/10 11:51:09;;;;;;;7.18;4.30;;;24.50;76.30;;;;;;5066069;28;20405;-68
2021/07/10 11:53:58;;;;;;;5.22;4.63;;;24.60;75.40;;;;;;5060473;28;20013;-67
2021/07/10 11:56:51;;;;;;;5.60;4.10;;;24.70;75.10;;;;;;5065923;28;20119;-68
2021/07/10 11:59:37;;;;;;;6.65;4.22;;;24.70;74.40;;;;;;5061513;28;20064;-68
2021/07/10 12:02:26;;;;;;;5.90;4.38;;;24.80;74.80;;;;;;5067526;28;20054;-68
2021/07/10 12:05:18;;;;;;;7.40;4.60;;;24.90;74.30;;;;;;5066920;28;20050;-68
2021/07/10 12:08:04;;;;;;;6.72;4.55;;;25.00;73.90;;;;;;5071035;28;20122;-68
2021/07/10 12:10:51;;;;;;;5.00;4.13;;;25.10;73.60;;;;;;5072673;28;20468;-68
2021/07/10 12:13:37;;;;;;;5.50;4.43;;;25.10;72.60;;;;;;5072628;28;20418;-68
2021/07/10 12:16:22;;;;;;;9.82;4.55;;;25.20;72.20;;;;;;5073733;28;20025;-69
2021/07/10 12:19:14;;;;;;;5.55;4.03;;;25.20;72.10;;;;;;5072149;28;20127;-68
2021/07/10 12:22:08;;;;;;;6.40;4.03;;;25.30;71.90;;;;;;5072402;28;20020;-69
2021/07/10 12:25:00;;;;;;;5.10;4.15;;;25.30;72.10;;;;;;5072421;28;20524;-69
2021/07/10 12:28:03;;;;;;;10.63;4.40;;;25.30;71.90;;;;;;5067469;28;20033;-69
2021/07/10 12:30:50;;;;;;;6.93;4.47;;;25.40;71.70;;;;;;5052541;28;20485;-68
2021/07/10 12:33:40;;;;;;;6.72;4.35;;;25.50;71.40;;;;;;5057986;28;20551;-68
2021/07/10 12:36:36;;;;;;;5.65;4.20;;;25.60;70.00;;;;;;5072033;28;20055;-68
2021/07/10 12:39:25;;;;;;;4.72;3.90;;;25.60;70.20;;;;;;5069985;28;20023;-68
2021/07/10 12:42:12;;;;;;;6.18;4.10;;;25.60;69.10;;;;;;5053670;28;20428;-68
2021/07/10 12:44:57;;;;;;;5.65;4.07;;;25.60;68.50;;;;;;5065334;28;20135;-68
2021/07/10 12:47:43;;;;;;;8.85;4.00;;;25.60;67.20;;;;;;5061313;28;20381;-68
2021/07/10 12:50:29;;;;;;;4.90;3.83;;;25.60;68.80;;;;;;5061491;28;20377;-67
2021/07/10 12:53:17;;;;;;;7.00;3.92;;;25.70;68.30;;;;;;5070216;28;20484;-67
2021/07/10 12:56:11;;;;;;;5.18;4.25;;;25.70;67.10;;;;;;5069010;28;20029;-68
2021/07/10 12:58:57;;;;;;;4.28;3.55;;;25.80;67.30;;;;;;5068681;28;20025;-66
2021/07/10 13:01:48;;;;;;;6.43;3.90;;;25.90;66.50;;;;;;5072670;28;20089;-67
2021/07/10 13:04:34;;;;;;;5.65;4.35;;;26.00;65.40;;;;;;5070655;28;20047;-66
2021/07/10 13:07:29;;;;;;;4.60;3.42;;;26.20;64.50;;;;;;5070939;28;20077;-67
2021/07/10 13:10:27;;;;;;;4.15;3.40;;;26.30;64.80;;;;;;5061062;28;20024;-67
2021/07/10 13:13:24;;;;;;;5.90;3.97;;;26.30;64.80;;;;;;5069478;28;20520;-67
2021/07/10 13:16:17;;;;;;;9.40;4.10;;;26.30;64.60;;;;;;5062815;28;20121;-73
2021/07/10 13:19:03;;;;;;;5.07;3.58;;;26.30;65.40;;;;;;5068552;28;20396;-67
2021/07/10 13:21:50;;;;;;;5.15;3.60;;;26.50;64.60;;;;;;5053279;28;20032;-67
2021/07/10 13:24:35;;;;;;;7.55;3.70;;;26.60;64.40;;;;;;5068899;28;20162;-68
2021/07/10 13:27:29;;;;;;;6.25;3.90;;;26.70;63.50;;;;;;5072877;28;20504;-68
2021/07/10 13:30:18;;;;;;;4.63;3.47;;;26.90;62.80;;;;;;5068247;28;20045;-67
2021/07/10 13:33:05;;;;;;;4.80;3.53;;;27.10;62.30;;;;;;5067747;28;20030;-68
2021/07/10 13:36:03;;;;;;;8.68;3.60;;;27.20;62.30;;;;;;5068446;28;20086;-68
2021/07/10 13:38:52;;;;;;;5.65;3.50;;;27.40;61.70;;;;;;5053710;28;20028;-68
2021/07/10 13:42:09;;;;;;;5.65;3.90;;;27.50;60.80;;;;;;5072538;28;20017;-68
2021/07/10 13:45:03;;;;;;;5.47;4.40;;;27.60;60.70;;;;;;5063173;28;20055;-67
2021/07/10 13:47:48;;;;;;;7.60;3.33;;;27.60;60.80;;;;;;5066186;28;20102;-67
2021/07/10 13:50:33;;;;;;;4.35;3.53;;;27.70;60.60;;;;;;5067399;28;20039;-68
2021/07/10 13:53:17;;;;;;;;;;;27.70;59.80;;;;;;5066940;28;20123;-68
2021/07/10 13:56:15;;;;;;;4.80;3.53;;;27.80;60.60;;;;;;5069053;28;19954;-68
2021/07/10 13:59:01;;;;;;;4.15;3.75;;;27.80;58.80;;;;;;5069797;28;20142;-68
2021/07/10 14:01:45;;;;;;;4.93;3.63;;;27.80;57.90;;;;;;5069814;28;20062;-68
2021/07/10 14:04:29;;;;;;;3.90;3.15;;;27.80;58.50;;;;;;5064576;28;20036;-68
2021/07/10 14:07:13;;;;;;;4.85;3.88;;;27.90;58.20;;;;;;5065583;28;20040;-68